sensor_id;sensor_type;location;lat;lon;timestamp;temperature;humidity
76120;DHT22;64852;48.092;-1.640;2024-01-07T00:00:03;5.80;99.90
76120;DHT22;64852;48.092;-1.640;2024-01-07T00:02:29;5.90;99.90
76120;DHT22;64852;48.092;-1.640;2024-01-07T00:04:56;7.10;99.90
76120;DHT22;64852;48.092;-1.640;2024-01-07T00:07:22;6.60;99.90
76120;DHT22;64852;48.092;-1.640;2024-01-07T00:09:47;5.90;99.90
76120;DHT22;64852;48.092;-1.640;2024-01-07T00:12:13;6.40;99.90
76120;DHT22;64852;48.092;-1.640;2024-01-07T00:14:38;5.90;99.90
76120;DHT22;64852;48.092;-1.640;2024-01-07T00:17:04;6.60;99.90
76120;DHT22;64852;48.092;-1.640;2024-01-07T00:19:30;6.10;99.90
76120;DHT22;64852;48.092;-1.640;2024-01-07T00:22:00;5.80;99.90
76120;DHT22;64852;48.092;-1.640;2024-01-07T00:24:26;6.90;99.90
76120;DHT22;64852;48.092;-1.640;2024-01-07T00:26:54;6.30;99.90
76120;DHT22;64852;48.092;-1.640;2024-01-07T00:29:20;7.10;99.90
76120;DHT22;64852;48.092;-1.640;2024-01-07T00:31:45;6.30;99.90
76120;DHT22;64852;48.092;-1.640;2024-01-07T00:34:11;5.90;99.90
76120;DHT22;64852;48.092;-1.640;2024-01-07T00:36:36;6.00;99.90
76120;DHT22;64852;48.092;-1.640;2024-01-07T00:39:02;7.00;99.90
76120;DHT22;64852;48.092;-1.640;2024-01-07T00:41:28;7.30;99.90
76120;DHT22;64852;48.092;-1.640;2024-01-07T00:43:55;5.70;99.90
76120;DHT22;64852;48.092;-1.640;2024-01-07T00:46:21;5.70;99.90
76120;DHT22;64852;48.092;-1.640;2024-01-07T00:48:46;5.60;99.90
76120;DHT22;64852;48.092;-1.640;2024-01-07T00:51:12;5.70;99.90
76120;DHT22;64852;48.092;-1.640;2024-01-07T00:53:38;7.20;99.90
76120;DHT22;64852;48.092;-1.640;2024-01-07T00:56:04;5.60;99.90
76120;DHT22;64852;48.092;-1.640;2024-01-07T00:58:29;5.50;99.90
76120;DHT22;64852;48.092;-1.640;2024-01-07T01:00:55;6.00;99.90
76120;DHT22;64852;48.092;-1.640;2024-01-07T01:03:21;5.50;99.90
76120;DHT22;64852;48.092;-1.640;2024-01-07T01:05:46;6.20;99.90
76120;DHT22;64852;48.092;-1.640;2024-01-07T01:08:12;6.50;99.90
76120;DHT22;64852;48.092;-1.640;2024-01-07T01:10:37;5.90;99.90
76120;DHT22;64852;48.092;-1.640;2024-01-07T01:13:03;5.50;99.90
76120;DHT22;64852;48.092;-1.640;2024-01-07T01:15:29;5.40;99.90
76120;DHT22;64852;48.092;-1.640;2024-01-07T01:17:54;5.40;99.90
76120;DHT22;64852;48.092;-1.640;2024-01-07T01:20:20;6.40;99.90
76120;DHT22;64852;48.092;-1.640;2024-01-07T01:22:46;5.30;99.90
76120;DHT22;64852;48.092;-1.640;2024-01-07T01:25:11;6.80;99.90
76120;DHT22;64852;48.092;-1.640;2024-01-07T01:27:37;5.30;99.90
76120;DHT22;64852;48.092;-1.640;2024-01-07T01:30:03;5.20;99.90
76120;DHT22;64852;48.092;-1.640;2024-01-07T01:32:28;5.30;99.90
76120;DHT22;64852;48.092;-1.640;2024-01-07T01:34:54;6.00;99.90
76120;DHT22;64852;48.092;-1.640;2024-01-07T01:37:20;5.20;99.90
76120;DHT22;64852;48.092;-1.640;2024-01-07T01:39:45;5.40;99.90
76120;DHT22;64852;48.092;-1.640;2024-01-07T01:42:11;5.90;99.90
76120;DHT22;64852;48.092;-1.640;2024-01-07T01:44:36;5.20;99.90
76120;DHT22;64852;48.092;-1.640;2024-01-07T01:47:02;6.50;99.90
76120;DHT22;64852;48.092;-1.640;2024-01-07T01:49:28;5.20;99.90
76120;DHT22;64852;48.092;-1.640;2024-01-07T01:51:54;5.80;99.90
76120;DHT22;64852;48.092;-1.640;2024-01-07T01:54:20;5.10;99.90
76120;DHT22;64852;48.092;-1.640;2024-01-07T01:56:47;6.70;99.90
76120;DHT22;64852;48.092;-1.640;2024-01-07T01:59:14;5.20;99.90
76120;DHT22;64852;48.092;-1.640;2024-01-07T02:01:40;5.10;99.90
76120;DHT22;64852;48.092;-1.640;2024-01-07T02:04:06;5.10;99.90
76120;DHT22;64852;48.092;-1.640;2024-01-07T02:06:33;5.80;99.90
76120;DHT22;64852;48.092;-1.640;2024-01-07T02:08:59;5.10;99.90
76120;DHT22;64852;48.092;-1.640;2024-01-07T02:11:24;5.40;99.90
76120;DHT22;64852;48.092;-1.640;2024-01-07T02:13:50;5.00;99.90
76120;DHT22;64852;48.092;-1.640;2024-01-07T02:16:16;6.30;99.90
76120;DHT22;64852;48.092;-1.640;2024-01-07T02:18:43;5.10;99.90
76120;DHT22;64852;48.092;-1.640;2024-01-07T02:21:09;6.20;99.90
76120;DHT22;64852;48.092;-1.640;2024-01-07T02:23:35;4.90;99.90
76120;DHT22;64852;48.092;-1.640;2024-01-07T02:26:01;5.00;99.90
76120;DHT22;64852;48.092;-1.640;2024-01-07T02:28:27;6.30;99.90
76120;DHT22;64852;48.092;-1.640;2024-01-07T02:30:52;4.90;99.90
76120;DHT22;64852;48.092;-1.640;2024-01-07T02:33:18;6.30;99.90
76120;DHT22;64852;48.092;-1.640;2024-01-07T02:35:44;5.90;99.90
76120;DHT22;64852;48.092;-1.640;2024-01-07T02:38:09;6.40;99.90
76120;DHT22;64852;48.092;-1.640;2024-01-07T02:40:35;6.20;99.90
76120;DHT22;64852;48.092;-1.640;2024-01-07T02:43:00;4.90;99.90
76120;DHT22;64852;48.092;-1.640;2024-01-07T02:45:26;5.30;99.90
76120;DHT22;64852;48.092;-1.640;2024-01-07T02:47:52;4.80;99.90
76120;DHT22;64852;48.092;-1.640;2024-01-07T02:50:17;5.80;99.90
76120;DHT22;64852;48.092;-1.640;2024-01-07T02:52:43;4.80;99.90
76120;DHT22;64852;48.092;-1.640;2024-01-07T02:55:09;4.70;99.90
76120;DHT22;64852;48.092;-1.640;2024-01-07T02:57:34;5.50;99.90
76120;DHT22;64852;48.092;-1.640;2024-01-07T03:00:00;5.50;99.90
76120;DHT22;64852;48.092;-1.640;2024-01-07T03:02:26;5.30;99.90
76120;DHT22;64852;48.092;-1.640;2024-01-07T03:04:51;5.00;99.90
76120;DHT22;64852;48.092;-1.640;2024-01-07T03:07:17;4.70;99.90
76120;DHT22;64852;48.092;-1.640;2024-01-07T03:09:43;4.60;99.90
76120;DHT22;64852;48.092;-1.640;2024-01-07T03:12:08;4.70;99.90
76120;DHT22;64852;48.092;-1.640;2024-01-07T03:14:34;4.70;99.90
76120;DHT22;64852;48.092;-1.640;2024-01-07T03:16:59;5.90;99.90
76120;DHT22;64852;48.092;-1.640;2024-01-07T03:19:25;6.00;99.90
76120;DHT22;64852;48.092;-1.640;2024-01-07T03:21:51;6.10;99.90
76120;DHT22;64852;48.092;-1.640;2024-01-07T03:24:17;6.10;99.90
76120;DHT22;64852;48.092;-1.640;2024-01-07T03:26:43;6.10;99.90
76120;DHT22;64852;48.092;-1.640;2024-01-07T03:29:08;5.00;99.90
76120;DHT22;64852;48.092;-1.640;2024-01-07T03:31:34;6.20;99.90
76120;DHT22;64852;48.092;-1.640;2024-01-07T03:33:59;5.10;99.90
76120;DHT22;64852;48.092;-1.640;2024-01-07T03:36:25;5.40;99.90
76120;DHT22;64852;48.092;-1.640;2024-01-07T03:38:51;6.30;99.90
76120;DHT22;64852;48.092;-1.640;2024-01-07T03:41:18;6.20;99.90
76120;DHT22;64852;48.092;-1.640;2024-01-07T03:43:47;5.20;99.90
76120;DHT22;64852;48.092;-1.640;2024-01-07T03:46:13;5.50;99.90
76120;DHT22;64852;48.092;-1.640;2024-01-07T03:48:38;5.70;99.90
76120;DHT22;64852;48.092;-1.640;2024-01-07T03:51:04;5.40;99.90
76120;DHT22;64852;48.092;-1.640;2024-01-07T03:53:29;5.40;99.90
76120;DHT22;64852;48.092;-1.640;2024-01-07T03:55:55;6.00;99.90
76120;DHT22;64852;48.092;-1.640;2024-01-07T03:58:20;6.10;99.90
76120;DHT22;64852;48.092;-1.640;2024-01-07T04:00:46;5.50;99.90
76120;DHT22;64852;48.092;-1.640;2024-01-07T04:03:11;6.30;99.90
76120;DHT22;64852;48.092;-1.640;2024-01-07T04:05:37;5.60;99.90
76120;DHT22;64852;48.092;-1.640;2024-01-07T04:08:03;6.10;99.90
76120;DHT22;64852;48.092;-1.640;2024-01-07T04:10:28;5.60;99.90
76120;DHT22;64852;48.092;-1.640;2024-01-07T04:12:54;5.90;99.90
76120;DHT22;64852;48.092;-1.640;2024-01-07T04:15:20;6.90;99.90
76120;DHT22;64852;48.092;-1.640;2024-01-07T04:17:46;5.70;99.90
76120;DHT22;64852;48.092;-1.640;2024-01-07T04:20:12;7.00;99.90
76120;DHT22;64852;48.092;-1.640;2024-01-07T04:22:38;5.60;99.90
76120;DHT22;64852;48.092;-1.640;2024-01-07T04:25:03;5.60;99.90
76120;DHT22;64852;48.092;-1.640;2024-01-07T04:27:30;5.50;99.90
76120;DHT22;64852;48.092;-1.640;2024-01-07T04:29:57;5.40;99.90
76120;DHT22;64852;48.092;-1.640;2024-01-07T04:32:22;6.90;99.90
76120;DHT22;64852;48.092;-1.640;2024-01-07T04:34:48;5.60;99.90
76120;DHT22;64852;48.092;-1.640;2024-01-07T04:37:14;5.10;99.90
76120;DHT22;64852;48.092;-1.640;2024-01-07T04:39:39;5.10;99.90
76120;DHT22;64852;48.092;-1.640;2024-01-07T04:42:05;5.90;99.90
76120;DHT22;64852;48.092;-1.640;2024-01-07T04:44:30;5.10;99.90
76120;DHT22;64852;48.092;-1.640;2024-01-07T04:46:56;6.30;99.90
76120;DHT22;64852;48.092;-1.640;2024-01-07T04:49:22;5.40;99.90
76120;DHT22;64852;48.092;-1.640;2024-01-07T04:51:47;5.90;99.90
76120;DHT22;64852;48.092;-1.640;2024-01-07T04:54:13;5.00;99.90
76120;DHT22;64852;48.092;-1.640;2024-01-07T04:56:38;5.00;99.90
76120;DHT22;64852;48.092;-1.640;2024-01-07T04:59:04;5.00;99.90
76120;DHT22;64852;48.092;-1.640;2024-01-07T05:01:31;6.20;99.90
76120;DHT22;64852;48.092;-1.640;2024-01-07T05:03:57;6.40;99.90
76120;DHT22;64852;48.092;-1.640;2024-01-07T05:06:23;5.00;99.90
76120;DHT22;64852;48.092;-1.640;2024-01-07T05:08:48;5.80;99.90
76120;DHT22;64852;48.092;-1.640;2024-01-07T05:11:14;5.80;99.90
76120;DHT22;64852;48.092;-1.640;2024-01-07T05:13:39;5.40;99.90
76120;DHT22;64852;48.092;-1.640;2024-01-07T05:16:05;6.30;99.90
76120;DHT22;64852;48.092;-1.640;2024-01-07T05:18:31;5.10;99.90
76120;DHT22;64852;48.092;-1.640;2024-01-07T05:20:56;6.80;99.90
76120;DHT22;64852;48.092;-1.640;2024-01-07T05:23:22;5.40;99.90
76120;DHT22;64852;48.092;-1.640;2024-01-07T05:25:48;6.00;99.90
76120;DHT22;64852;48.092;-1.640;2024-01-07T05:28:14;6.60;99.90
76120;DHT22;64852;48.092;-1.640;2024-01-07T05:30:40;5.50;99.90
76120;DHT22;64852;48.092;-1.640;2024-01-07T05:33:06;5.60;99.90
76120;DHT22;64852;48.092;-1.640;2024-01-07T05:35:32;6.40;99.90
76120;DHT22;64852;48.092;-1.640;2024-01-07T05:37:58;6.70;99.90
76120;DHT22;64852;48.092;-1.640;2024-01-07T05:40:24;5.70;99.90
76120;DHT22;64852;48.092;-1.640;2024-01-07T05:42:49;5.60;99.90
76120;DHT22;64852;48.092;-1.640;2024-01-07T05:45:15;6.90;99.90
76120;DHT22;64852;48.092;-1.640;2024-01-07T05:47:40;5.70;99.90
76120;DHT22;64852;48.092;-1.640;2024-01-07T05:50:07;5.70;99.90
76120;DHT22;64852;48.092;-1.640;2024-01-07T05:52:33;5.80;99.90
76120;DHT22;64852;48.092;-1.640;2024-01-07T05:54:58;5.80;99.90
76120;DHT22;64852;48.092;-1.640;2024-01-07T05:57:24;5.80;99.90
76120;DHT22;64852;48.092;-1.640;2024-01-07T05:59:50;5.90;99.90
76120;DHT22;64852;48.092;-1.640;2024-01-07T06:02:16;7.10;99.90
76120;DHT22;64852;48.092;-1.640;2024-01-07T06:04:42;6.60;99.90
76120;DHT22;64852;48.092;-1.640;2024-01-07T06:07:08;6.10;99.90
76120;DHT22;64852;48.092;-1.640;2024-01-07T06:09:34;6.20;99.90
76120;DHT22;64852;48.092;-1.640;2024-01-07T06:12:00;7.00;99.90
76120;DHT22;64852;48.092;-1.640;2024-01-07T06:14:25;6.80;99.90
76120;DHT22;64852;48.092;-1.640;2024-01-07T06:16:51;6.70;99.90
76120;DHT22;64852;48.092;-1.640;2024-01-07T06:19:17;7.20;99.90
76120;DHT22;64852;48.092;-1.640;2024-01-07T06:21:43;7.70;99.90
76120;DHT22;64852;48.092;-1.640;2024-01-07T06:24:09;6.60;99.90
76120;DHT22;64852;48.092;-1.640;2024-01-07T06:26:35;7.70;99.90
76120;DHT22;64852;48.092;-1.640;2024-01-07T06:29:00;6.60;99.90
76120;DHT22;64852;48.092;-1.640;2024-01-07T06:31:26;6.60;99.90
76120;DHT22;64852;48.092;-1.640;2024-01-07T06:33:52;6.40;99.90
76120;DHT22;64852;48.092;-1.640;2024-01-07T06:36:18;6.80;99.90
76120;DHT22;64852;48.092;-1.640;2024-01-07T06:38:44;7.00;99.90
76120;DHT22;64852;48.092;-1.640;2024-01-07T06:41:11;6.80;99.90
76120;DHT22;64852;48.092;-1.640;2024-01-07T06:43:36;7.00;99.90
76120;DHT22;64852;48.092;-1.640;2024-01-07T06:46:02;6.00;99.90
76120;DHT22;64852;48.092;-1.640;2024-01-07T06:48:27;6.10;99.90
76120;DHT22;64852;48.092;-1.640;2024-01-07T06:50:53;7.40;99.90
76120;DHT22;64852;48.092;-1.640;2024-01-07T06:53:18;5.80;99.90
76120;DHT22;64852;48.092;-1.640;2024-01-07T06:55:44;6.00;99.90
76120;DHT22;64852;48.092;-1.640;2024-01-07T06:58:10;5.60;99.90
76120;DHT22;64852;48.092;-1.640;2024-01-07T07:00:35;5.70;99.90
76120;DHT22;64852;48.092;-1.640;2024-01-07T07:03:01;5.70;99.90
76120;DHT22;64852;48.092;-1.640;2024-01-07T07:05:26;6.40;99.90
76120;DHT22;64852;48.092;-1.640;2024-01-07T07:07:52;6.90;99.90
76120;DHT22;64852;48.092;-1.640;2024-01-07T07:10:18;5.60;99.90
76120;DHT22;64852;48.092;-1.640;2024-01-07T07:12:43;6.90;99.90
76120;DHT22;64852;48.092;-1.640;2024-01-07T07:15:09;6.70;99.90
76120;DHT22;64852;48.092;-1.640;2024-01-07T07:17:36;5.80;99.90
76120;DHT22;64852;48.092;-1.640;2024-01-07T07:20:02;6.60;99.90
76120;DHT22;64852;48.092;-1.640;2024-01-07T07:22:28;5.70;99.90
76120;DHT22;64852;48.092;-1.640;2024-01-07T07:24:54;5.80;99.90
76120;DHT22;64852;48.092;-1.640;2024-01-07T07:27:19;7.40;99.90
76120;DHT22;64852;48.092;-1.640;2024-01-07T07:29:45;5.60;99.90
76120;DHT22;64852;48.092;-1.640;2024-01-07T07:32:10;6.90;99.90
76120;DHT22;64852;48.092;-1.640;2024-01-07T07:34:36;6.50;99.90
76120;DHT22;64852;48.092;-1.640;2024-01-07T07:37:02;6.10;99.90
76120;DHT22;64852;48.092;-1.640;2024-01-07T07:39:28;5.40;99.90
76120;DHT22;64852;48.092;-1.640;2024-01-07T07:41:54;5.90;99.90
76120;DHT22;64852;48.092;-1.640;2024-01-07T07:44:19;6.70;99.90
76120;DHT22;64852;48.092;-1.640;2024-01-07T07:46:45;6.40;99.90
76120;DHT22;64852;48.092;-1.640;2024-01-07T07:49:10;6.00;99.90
76120;DHT22;64852;48.092;-1.640;2024-01-07T07:51:36;5.20;99.90
76120;DHT22;64852;48.092;-1.640;2024-01-07T07:54:02;6.10;99.90
76120;DHT22;64852;48.092;-1.640;2024-01-07T07:56:28;5.20;99.90
76120;DHT22;64852;48.092;-1.640;2024-01-07T07:58:54;5.10;99.90
76120;DHT22;64852;48.092;-1.640;2024-01-07T08:01:19;5.00;99.90
76120;DHT22;64852;48.092;-1.640;2024-01-07T08:03:45;6.10;99.90
76120;DHT22;64852;48.092;-1.640;2024-01-07T08:06:11;6.50;99.90
76120;DHT22;64852;48.092;-1.640;2024-01-07T08:08:36;5.90;99.90
76120;DHT22;64852;48.092;-1.640;2024-01-07T08:11:02;5.00;99.90
76120;DHT22;64852;48.092;-1.640;2024-01-07T08:13:28;4.90;99.90
76120;DHT22;64852;48.092;-1.640;2024-01-07T08:15:53;4.90;99.90
76120;DHT22;64852;48.092;-1.640;2024-01-07T08:18:19;4.90;99.90
76120;DHT22;64852;48.092;-1.640;2024-01-07T08:20:45;6.30;99.90
76120;DHT22;64852;48.092;-1.640;2024-01-07T08:23:10;6.00;99.90
76120;DHT22;64852;48.092;-1.640;2024-01-07T08:25:36;4.80;99.90
76120;DHT22;64852;48.092;-1.640;2024-01-07T08:28:01;6.30;99.90
76120;DHT22;64852;48.092;-1.640;2024-01-07T08:30:27;4.90;99.90
76120;DHT22;64852;48.092;-1.640;2024-01-07T08:32:52;4.90;99.90
76120;DHT22;64852;48.092;-1.640;2024-01-07T08:35:18;6.00;99.90
76120;DHT22;64852;48.092;-1.640;2024-01-07T08:37:43;6.30;99.90
76120;DHT22;64852;48.092;-1.640;2024-01-07T08:40:10;5.40;99.90
76120;DHT22;64852;48.092;-1.640;2024-01-07T08:42:36;5.40;99.90
76120;DHT22;64852;48.092;-1.640;2024-01-07T08:45:02;6.60;99.90
76120;DHT22;64852;48.092;-1.640;2024-01-07T08:47:29;5.60;99.90
76120;DHT22;64852;48.092;-1.640;2024-01-07T08:49:57;5.50;99.90
76120;DHT22;64852;48.092;-1.640;2024-01-07T08:52:23;7.10;99.90
76120;DHT22;64852;48.092;-1.640;2024-01-07T08:54:48;6.90;99.90
76120;DHT22;64852;48.092;-1.640;2024-01-07T08:57:14;7.10;99.90
76120;DHT22;64852;48.092;-1.640;2024-01-07T08:59:40;5.70;99.90
76120;DHT22;64852;48.092;-1.640;2024-01-07T09:02:05;6.40;99.90
76120;DHT22;64852;48.092;-1.640;2024-01-07T09:04:33;6.60;99.90
76120;DHT22;64852;48.092;-1.640;2024-01-07T09:06:59;5.80;99.90
76120;DHT22;64852;48.092;-1.640;2024-01-07T09:09:25;7.00;99.90
76120;DHT22;64852;48.092;-1.640;2024-01-07T09:11:52;6.50;99.90
76120;DHT22;64852;48.092;-1.640;2024-01-07T09:14:18;7.30;99.90
76120;DHT22;64852;48.092;-1.640;2024-01-07T09:16:43;6.20;99.90
76120;DHT22;64852;48.092;-1.640;2024-01-07T09:19:09;7.20;99.90
76120;DHT22;64852;48.092;-1.640;2024-01-07T09:21:34;6.00;99.90
76120;DHT22;64852;48.092;-1.640;2024-01-07T09:24:00;5.80;99.90
76120;DHT22;64852;48.092;-1.640;2024-01-07T09:26:25;7.20;99.90
76120;DHT22;64852;48.092;-1.640;2024-01-07T09:28:51;6.90;99.90
76120;DHT22;64852;48.092;-1.640;2024-01-07T09:31:17;7.30;99.90
76120;DHT22;64852;48.092;-1.640;2024-01-07T09:33:43;6.80;99.90
76120;DHT22;64852;48.092;-1.640;2024-01-07T09:36:08;6.80;99.90
76120;DHT22;64852;48.092;-1.640;2024-01-07T09:38:34;6.80;99.90
76120;DHT22;64852;48.092;-1.640;2024-01-07T09:40:59;6.50;99.90
76120;DHT22;64852;48.092;-1.640;2024-01-07T09:43:25;7.30;99.90
76120;DHT22;64852;48.092;-1.640;2024-01-07T09:45:51;6.00;99.90
76120;DHT22;64852;48.092;-1.640;2024-01-07T09:48:18;6.90;99.90
76120;DHT22;64852;48.092;-1.640;2024-01-07T09:50:44;7.50;99.90
76120;DHT22;64852;48.092;-1.640;2024-01-07T09:53:15;7.10;99.90
76120;DHT22;64852;48.092;-1.640;2024-01-07T09:55:57;7.10;99.90
76120;DHT22;64852;48.092;-1.640;2024-01-07T09:58:26;6.30;99.90
76120;DHT22;64852;48.092;-1.640;2024-01-07T10:00:53;7.50;99.90
76120;DHT22;64852;48.092;-1.640;2024-01-07T10:03:19;8.00;99.90
76120;DHT22;64852;48.092;-1.640;2024-01-07T10:05:45;6.30;99.90
76120;DHT22;64852;48.092;-1.640;2024-01-07T10:08:10;7.60;99.90
76120;DHT22;64852;48.092;-1.640;2024-01-07T10:10:36;7.60;99.90
76120;DHT22;64852;48.092;-1.640;2024-01-07T10:13:02;6.60;99.90
76120;DHT22;64852;48.092;-1.640;2024-01-07T10:15:28;7.70;99.90
76120;DHT22;64852;48.092;-1.640;2024-01-07T10:18:05;8.30;99.90
76120;DHT22;64852;48.092;-1.640;2024-01-07T10:20:32;6.90;99.90
76120;DHT22;64852;48.092;-1.640;2024-01-07T10:23:04;7.10;99.90
76120;DHT22;64852;48.092;-1.640;2024-01-07T10:25:33;7.20;99.90
76120;DHT22;64852;48.092;-1.640;2024-01-07T10:28:01;7.20;99.90
76120;DHT22;64852;48.092;-1.640;2024-01-07T10:30:27;7.20;99.90
76120;DHT22;64852;48.092;-1.640;2024-01-07T10:32:59;7.40;99.90
76120;DHT22;64852;48.092;-1.640;2024-01-07T10:35:34;7.40;99.90
76120;DHT22;64852;48.092;-1.640;2024-01-07T10:38:01;7.40;99.90
76120;DHT22;64852;48.092;-1.640;2024-01-07T10:40:28;7.40;99.90
76120;DHT22;64852;48.092;-1.640;2024-01-07T10:42:57;7.90;99.90
76120;DHT22;64852;48.092;-1.640;2024-01-07T10:45:23;8.20;99.90
76120;DHT22;64852;48.092;-1.640;2024-01-07T10:47:50;8.10;99.90
76120;DHT22;64852;48.092;-1.640;2024-01-07T10:50:19;8.80;99.90
76120;DHT22;64852;48.092;-1.640;2024-01-07T10:52:57;7.50;99.90
76120;DHT22;64852;48.092;-1.640;2024-01-07T10:55:25;7.50;99.90
76120;DHT22;64852;48.092;-1.640;2024-01-07T10:57:53;7.50;99.90
76120;DHT22;64852;48.092;-1.640;2024-01-07T11:00:21;7.80;99.90
76120;DHT22;64852;48.092;-1.640;2024-01-07T11:03:27;7.60;99.90
76120;DHT22;64852;48.092;-1.640;2024-01-07T11:05:59;7.50;99.90
76120;DHT22;64852;48.092;-1.640;2024-01-07T11:08:28;7.60;99.90
76120;DHT22;64852;48.092;-1.640;2024-01-07T11:11:07;8.20;99.90
76120;DHT22;64852;48.092;-1.640;2024-01-07T11:13:36;7.40;99.90
76120;DHT22;64852;48.092;-1.640;2024-01-07T11:16:06;7.50;99.90
76120;DHT22;64852;48.092;-1.640;2024-01-07T11:18:40;8.00;99.90
76120;DHT22;64852;48.092;-1.640;2024-01-07T11:21:10;8.30;99.90
76120;DHT22;64852;48.092;-1.640;2024-01-07T11:23:37;8.10;99.90
76120;DHT22;64852;48.092;-1.640;2024-01-07T11:26:08;7.70;99.90
76120;DHT22;64852;48.092;-1.640;2024-01-07T11:31:08;8.70;99.90
76120;DHT22;64852;48.092;-1.640;2024-01-07T11:33:37;7.90;99.90
76120;DHT22;64852;48.092;-1.640;2024-01-07T11:36:04;8.10;99.90
76120;DHT22;64852;48.092;-1.640;2024-01-07T11:38:30;8.20;99.90
76120;DHT22;64852;48.092;-1.640;2024-01-07T11:40:57;8.80;99.90
76120;DHT22;64852;48.092;-1.640;2024-01-07T11:43:23;8.40;99.90
76120;DHT22;64852;48.092;-1.640;2024-01-07T11:45:51;8.60;99.90
76120;DHT22;64852;48.092;-1.640;2024-01-07T11:48:18;8.60;99.90
76120;DHT22;64852;48.092;-1.640;2024-01-07T11:50:44;8.70;99.90
76120;DHT22;64852;48.092;-1.640;2024-01-07T11:53:12;8.80;99.90
76120;DHT22;64852;48.092;-1.640;2024-01-07T11:55:38;9.70;99.90
76120;DHT22;64852;48.092;-1.640;2024-01-07T11:58:03;9.00;99.90
76120;DHT22;64852;48.092;-1.640;2024-01-07T12:00:35;9.70;99.90
76120;DHT22;64852;48.092;-1.640;2024-01-07T12:03:02;9.00;99.90
76120;DHT22;64852;48.092;-1.640;2024-01-07T12:05:28;8.90;99.90
76120;DHT22;64852;48.092;-1.640;2024-01-07T12:07:54;8.80;99.90
76120;DHT22;64852;48.092;-1.640;2024-01-07T12:10:19;8.70;99.90
76120;DHT22;64852;48.092;-1.640;2024-01-07T12:12:45;8.50;99.90
76120;DHT22;64852;48.092;-1.640;2024-01-07T12:15:12;8.40;99.90
76120;DHT22;64852;48.092;-1.640;2024-01-07T12:17:38;8.30;99.90
76120;DHT22;64852;48.092;-1.640;2024-01-07T12:20:04;9.10;99.90
76120;DHT22;64852;48.092;-1.640;2024-01-07T12:22:32;8.30;99.90
76120;DHT22;64852;48.092;-1.640;2024-01-07T12:25:05;8.80;99.90
76120;DHT22;64852;48.092;-1.640;2024-01-07T12:27:32;8.30;99.90
76120;DHT22;64852;48.092;-1.640;2024-01-07T12:29:58;8.40;99.90
76120;DHT22;64852;48.092;-1.640;2024-01-07T12:32:30;9.40;99.90
76120;DHT22;64852;48.092;-1.640;2024-01-07T12:35:02;8.40;99.90
76120;DHT22;64852;48.092;-1.640;2024-01-07T12:37:28;8.40;99.90
76120;DHT22;64852;48.092;-1.640;2024-01-07T12:39:54;9.20;99.90
76120;DHT22;64852;48.092;-1.640;2024-01-07T12:42:20;9.40;99.90
76120;DHT22;64852;48.092;-1.640;2024-01-07T12:44:49;9.70;99.90
76120;DHT22;64852;48.092;-1.640;2024-01-07T12:47:15;9.30;99.90
76120;DHT22;64852;48.092;-1.640;2024-01-07T12:49:41;9.90;99.90
76120;DHT22;64852;48.092;-1.640;2024-01-07T12:52:06;10.40;99.90
76120;DHT22;64852;48.092;-1.640;2024-01-07T12:54:32;10.70;99.90
76120;DHT22;64852;48.092;-1.640;2024-01-07T12:56:59;10.90;99.90
76120;DHT22;64852;48.092;-1.640;2024-01-07T12:59:24;11.00;99.90
76120;DHT22;64852;48.092;-1.640;2024-01-07T13:01:50;11.00;99.90
76120;DHT22;64852;48.092;-1.640;2024-01-07T13:04:16;11.10;99.90
76120;DHT22;64852;48.092;-1.640;2024-01-07T13:06:42;11.50;99.90
76120;DHT22;64852;48.092;-1.640;2024-01-07T13:09:08;11.90;99.90
76120;DHT22;64852;48.092;-1.640;2024-01-07T13:11:34;10.80;99.90
76120;DHT22;64852;48.092;-1.640;2024-01-07T13:14:00;10.90;99.90
76120;DHT22;64852;48.092;-1.640;2024-01-07T13:16:27;11.10;99.90
76120;DHT22;64852;48.092;-1.640;2024-01-07T13:18:53;11.10;99.90
76120;DHT22;64852;48.092;-1.640;2024-01-07T13:21:19;10.90;99.90
76120;DHT22;64852;48.092;-1.640;2024-01-07T13:23:46;11.70;99.90
76120;DHT22;64852;48.092;-1.640;2024-01-07T13:26:14;11.60;99.90
76120;DHT22;64852;48.092;-1.640;2024-01-07T13:28:40;11.40;99.90
76120;DHT22;64852;48.092;-1.640;2024-01-07T13:31:07;11.20;99.90
76120;DHT22;64852;48.092;-1.640;2024-01-07T13:33:33;10.70;99.90
76120;DHT22;64852;48.092;-1.640;2024-01-07T13:35:58;11.70;99.90
76120;DHT22;64852;48.092;-1.640;2024-01-07T13:38:24;10.70;99.90
76120;DHT22;64852;48.092;-1.640;2024-01-07T13:40:50;10.80;99.90
76120;DHT22;64852;48.092;-1.640;2024-01-07T13:43:16;10.80;99.90
76120;DHT22;64852;48.092;-1.640;2024-01-07T13:45:41;11.60;99.90
76120;DHT22;64852;48.092;-1.640;2024-01-07T13:48:07;10.70;99.90
76120;DHT22;64852;48.092;-1.640;2024-01-07T13:50:33;10.70;99.90
76120;DHT22;64852;48.092;-1.640;2024-01-07T13:52:59;11.50;99.90
76120;DHT22;64852;48.092;-1.640;2024-01-07T13:55:25;10.30;99.90
76120;DHT22;64852;48.092;-1.640;2024-01-07T13:57:50;10.00;99.90
76120;DHT22;64852;48.092;-1.640;2024-01-07T14:00:16;10.70;99.90
76120;DHT22;64852;48.092;-1.640;2024-01-07T14:02:44;9.80;99.90
76120;DHT22;64852;48.092;-1.640;2024-01-07T14:05:11;10.00;99.90
76120;DHT22;64852;48.092;-1.640;2024-01-07T14:07:37;10.10;99.90
76120;DHT22;64852;48.092;-1.640;2024-01-07T14:10:04;10.00;99.90
76120;DHT22;64852;48.092;-1.640;2024-01-07T14:12:31;10.20;99.90
76120;DHT22;64852;48.092;-1.640;2024-01-07T14:14:57;10.10;99.90
76120;DHT22;64852;48.092;-1.640;2024-01-07T14:17:24;10.10;99.90
76120;DHT22;64852;48.092;-1.640;2024-01-07T14:19:51;10.00;99.90
76120;DHT22;64852;48.092;-1.640;2024-01-07T14:22:22;10.20;99.90
76120;DHT22;64852;48.092;-1.640;2024-01-07T14:24:49;10.60;99.90
76120;DHT22;64852;48.092;-1.640;2024-01-07T14:27:15;10.30;99.90
76120;DHT22;64852;48.092;-1.640;2024-01-07T14:29:41;8.80;99.90
76120;DHT22;64852;48.092;-1.640;2024-01-07T14:32:07;10.00;99.90
76120;DHT22;64852;48.092;-1.640;2024-01-07T14:34:33;11.60;99.90
76120;DHT22;64852;48.092;-1.640;2024-01-07T14:36:58;10.00;99.90
76120;DHT22;64852;48.092;-1.640;2024-01-07T14:39:24;9.80;99.90
76120;DHT22;64852;48.092;-1.640;2024-01-07T14:41:51;9.60;99.90
76120;DHT22;64852;48.092;-1.640;2024-01-07T14:44:17;11.20;99.90
76120;DHT22;64852;48.092;-1.640;2024-01-07T14:46:42;9.10;99.90
76120;DHT22;64852;48.092;-1.640;2024-01-07T14:49:08;9.40;99.90
76120;DHT22;64852;48.092;-1.640;2024-01-07T14:51:34;9.00;99.90
76120;DHT22;64852;48.092;-1.640;2024-01-07T14:54:00;8.80;99.90
76120;DHT22;64852;48.092;-1.640;2024-01-07T14:56:25;9.60;99.90
76120;DHT22;64852;48.092;-1.640;2024-01-07T14:58:52;9.70;99.90
76120;DHT22;64852;48.092;-1.640;2024-01-07T15:01:17;8.80;99.90
76120;DHT22;64852;48.092;-1.640;2024-01-07T15:03:44;8.90;99.90
76120;DHT22;64852;48.092;-1.640;2024-01-07T15:06:09;8.70;99.90
76120;DHT22;64852;48.092;-1.640;2024-01-07T15:08:36;8.60;99.90
76120;DHT22;64852;48.092;-1.640;2024-01-07T15:11:02;8.50;99.90
76120;DHT22;64852;48.092;-1.640;2024-01-07T15:13:27;8.40;99.90
76120;DHT22;64852;48.092;-1.640;2024-01-07T15:15:54;9.20;99.90
76120;DHT22;64852;48.092;-1.640;2024-01-07T15:18:20;9.00;99.90
76120;DHT22;64852;48.092;-1.640;2024-01-07T15:20:45;9.10;99.90
76120;DHT22;64852;48.092;-1.640;2024-01-07T15:23:11;8.80;99.90
76120;DHT22;64852;48.092;-1.640;2024-01-07T15:25:36;8.80;99.90